Detall de PIREP

Printer-friendly versionPDF version

[2011/05/27 15:14:00]
Flight IATA:CT1004
Pilot Number:042
Company ICAO:CAT
Aircraft Type:B763/F
PAX:250
Departing Airport: LEGE
Destination Airport: EGKK
Alternate Airport:EGSS
Online: VATSIM
Route:GEANT UN727 ROCAN UY120 TOU UN727 AGN UN863 TIRAV UY87 TERPO UP87 DOMUT
Flight Level:F340
No Slew and time accel
No pause
Crash detect
Detect pilot in Cockpit between each 30 and 45 minutes
15:14 Zero fuel Weight: 244976 Lbs, Fuel Weight: 161633 Lbs
15:14 VATSIM:LEGE 271500Z 04012KT 350V060 9000 BKN040 20/10 Q1017
15:14 VATSIM:EGKK 271450Z 30011KT 9999 FEW036 14/06 Q1019
15:15 VOICE CATALONIAN//CHAMPIONS LEAGUE FINAL CHARTER
15:21 Parking Brakes off
15:30 Take-off
15:30 Take off Weight: 399550 Lbs
15:30 Wind: 030 @ 012 Knots Heading: 015
15:30 POS N41 54 42 E002 45 53
15:30 Gear Up: 184 Knots
15:30 Flaps:3 at 184 Knots
15:31 Flaps:2 at 170 Knots
15:32 Flaps:1 at 198 Knots
15:33 Flaps:0 at 209 Knots
15:45 Wind:331@025 Knots Heading: 334 Ground Speed: 427 Knots Altitude 33684 ft
15:45 TOC
15:45 Fuel Weight: 151046 Lb
16:00 Wind:339@040 Knots Heading: 335 Ground Speed: 421 Knots Altitude 34232 ft
16:15 Wind:335@049 Knots Heading: 323 Ground Speed: 413 Knots Altitude 34232 ft
16:30 Wind:335@046 Knots Heading: 333 Ground Speed: 411 Knots Altitude 34248 ft
16:45 Wind:318@054 Knots Heading: 006 Ground Speed: 420 Knots Altitude 34261 ft
16:51 TOD
16:51 Fuel Weight: 138021 Lb
17:00 Wind:318@039 Knots Heading: 033 Ground Speed: 339 Knots Altitude 22870 ft
17:02 Flaps:1 at 240 Knots
17:09 Flaps:2 at 217 Knots
17:11 Flaps:3 at 171 Knots
17:15 Wind:267@007 Knots Heading: 003 Ground Speed: 185 Knots Altitude 2913 ft
17:18 Gear Down: 162 Knots
17:19 Flaps:4 at 166 Knots
17:19 Flaps:5 at 153 Knots
17:19 Flaps:6 at 153 Knots
17:21 TouchDown:Rate -176 ft/min Speed: 145 Knots
17:22 VATSIM:EGKK 271650Z 27010KT 9999 FEW041 14/05 Q1019
17:22 Land
17:22 Wind:274@010 Knots
17:22 Heading: 257
17:22 Flight Duration: 01:52
17:22 Landing Weight: 373552 Lbs
17:22 POS N51 08 49 W000 11 50
17:29 Parking brakes on
17:29 Block to Block Duration: 02:08
17:29 Final Fuel: 131781 Lbls
17:29 Spent Fuel: 29852 Lbls
17:29 Flight Length: 581 NM
17:29 TOD Land Length: 138 NM

Exportar CSV

Powered by Drupal - Modified by Danger4k